sensor_id;sensor_type;location;lat;lon;timestamp;temperature;humidity
314;DHT22;143;51.634;7.112;2024-01-15T00:00:42;1.70;1.00
314;DHT22;143;51.634;7.112;2024-01-15T00:03:08;1.60;1.00
314;DHT22;143;51.634;7.112;2024-01-15T00:05:33;1.50;1.00
314;DHT22;143;51.634;7.112;2024-01-15T00:07:59;1.50;1.00
314;DHT22;143;51.634;7.112;2024-01-15T00:10:24;1.50;1.00
314;DHT22;143;51.634;7.112;2024-01-15T00:12:50;1.60;1.00
314;DHT22;143;51.634;7.112;2024-01-15T00:15:15;1.50;1.00
314;DHT22;143;51.634;7.112;2024-01-15T00:17:41;1.70;1.00
314;DHT22;143;51.634;7.112;2024-01-15T00:20:07;1.50;1.00
314;DHT22;143;51.634;7.112;2024-01-15T00:22:32;1.50;1.00
314;DHT22;143;51.634;7.112;2024-01-15T00:25:01;1.70;1.00
314;DHT22;143;51.634;7.112;2024-01-15T00:27:26;1.70;1.00
314;DHT22;143;51.634;7.112;2024-01-15T00:29:52;1.70;1.00
314;DHT22;143;51.634;7.112;2024-01-15T00:32:17;1.70;1.00
314;DHT22;143;51.634;7.112;2024-01-15T00:34:43;1.70;1.00
314;DHT22;143;51.634;7.112;2024-01-15T00:37:08;1.70;1.00
314;DHT22;143;51.634;7.112;2024-01-15T00:39:34;1.70;1.00
314;DHT22;143;51.634;7.112;2024-01-15T00:41:59;1.70;1.00
314;DHT22;143;51.634;7.112;2024-01-15T00:44:25;1.80;1.00
314;DHT22;143;51.634;7.112;2024-01-15T00:46:50;1.80;1.00
314;DHT22;143;51.634;7.112;2024-01-15T00:49:16;1.70;1.00
314;DHT22;143;51.634;7.112;2024-01-15T00:51:42;1.70;1.00
314;DHT22;143;51.634;7.112;2024-01-15T00:54:08;1.80;1.00
314;DHT22;143;51.634;7.112;2024-01-15T00:56:33;1.60;1.00
314;DHT22;143;51.634;7.112;2024-01-15T00:59:00;1.70;1.00
314;DHT22;143;51.634;7.112;2024-01-15T01:01:25;1.80;1.00
314;DHT22;143;51.634;7.112;2024-01-15T01:03:51;1.80;1.00
314;DHT22;143;51.634;7.112;2024-01-15T01:06:16;1.80;1.00
314;DHT22;143;51.634;7.112;2024-01-15T01:08:42;1.80;1.00
314;DHT22;143;51.634;7.112;2024-01-15T01:11:07;1.80;1.00
314;DHT22;143;51.634;7.112;2024-01-15T01:13:33;1.90;1.00
314;DHT22;143;51.634;7.112;2024-01-15T01:15:58;2.10;1.00
314;DHT22;143;51.634;7.112;2024-01-15T01:18:24;1.80;1.00
314;DHT22;143;51.634;7.112;2024-01-15T01:20:50;1.80;1.00
314;DHT22;143;51.634;7.112;2024-01-15T01:23:16;1.70;1.00
314;DHT22;143;51.634;7.112;2024-01-15T01:25:41;1.90;1.00
314;DHT22;143;51.634;7.112;2024-01-15T01:28:07;2.10;1.00
314;DHT22;143;51.634;7.112;2024-01-15T01:30:33;2.00;1.00
314;DHT22;143;51.634;7.112;2024-01-15T01:32:58;1.80;1.00
314;DHT22;143;51.634;7.112;2024-01-15T01:35:24;1.70;1.00
314;DHT22;143;51.634;7.112;2024-01-15T01:37:50;1.80;1.00
314;DHT22;143;51.634;7.112;2024-01-15T01:40:15;1.80;1.00
314;DHT22;143;51.634;7.112;2024-01-15T01:42:41;2.00;1.00
314;DHT22;143;51.634;7.112;2024-01-15T01:45:07;1.90;1.00
314;DHT22;143;51.634;7.112;2024-01-15T01:47:32;2.10;1.00
314;DHT22;143;51.634;7.112;2024-01-15T01:49:58;1.90;1.00
314;DHT22;143;51.634;7.112;2024-01-15T01:52:24;1.70;1.00
314;DHT22;143;51.634;7.112;2024-01-15T01:54:51;1.70;1.00
314;DHT22;143;51.634;7.112;2024-01-15T01:57:17;1.70;1.00
314;DHT22;143;51.634;7.112;2024-01-15T01:59:44;1.80;1.00
314;DHT22;143;51.634;7.112;2024-01-15T02:02:11;1.80;1.00
314;DHT22;143;51.634;7.112;2024-01-15T02:04:37;1.80;1.00
314;DHT22;143;51.634;7.112;2024-01-15T02:07:03;1.60;1.00
314;DHT22;143;51.634;7.112;2024-01-15T02:09:29;1.60;1.00
314;DHT22;143;51.634;7.112;2024-01-15T02:11:55;1.60;1.00
314;DHT22;143;51.634;7.112;2024-01-15T02:14:21;1.70;1.00
314;DHT22;143;51.634;7.112;2024-01-15T02:16:47;1.60;1.00
314;DHT22;143;51.634;7.112;2024-01-15T02:19:16;1.60;1.00
314;DHT22;143;51.634;7.112;2024-01-15T02:21:45;1.60;1.00
314;DHT22;143;51.634;7.112;2024-01-15T02:24:11;1.60;1.00
314;DHT22;143;51.634;7.112;2024-01-15T02:26:37;1.60;1.00
314;DHT22;143;51.634;7.112;2024-01-15T02:29:04;1.60;1.00
314;DHT22;143;51.634;7.112;2024-01-15T02:31:31;1.60;1.00
314;DHT22;143;51.634;7.112;2024-01-15T02:33:56;1.40;1.00
314;DHT22;143;51.634;7.112;2024-01-15T02:36:22;1.80;1.00
314;DHT22;143;51.634;7.112;2024-01-15T02:38:47;1.60;1.00
314;DHT22;143;51.634;7.112;2024-01-15T02:41:13;1.70;1.00
314;DHT22;143;51.634;7.112;2024-01-15T02:43:40;1.70;1.00
314;DHT22;143;51.634;7.112;2024-01-15T02:46:06;1.70;1.00
314;DHT22;143;51.634;7.112;2024-01-15T02:48:32;1.60;1.00
314;DHT22;143;51.634;7.112;2024-01-15T02:50:58;1.70;1.00
314;DHT22;143;51.634;7.112;2024-01-15T02:53:24;1.70;1.00
314;DHT22;143;51.634;7.112;2024-01-15T02:55:49;1.70;1.00
314;DHT22;143;51.634;7.112;2024-01-15T02:58:15;1.50;1.00
314;DHT22;143;51.634;7.112;2024-01-15T03:00:40;1.70;1.00
314;DHT22;143;51.634;7.112;2024-01-15T03:03:06;1.70;1.00
314;DHT22;143;51.634;7.112;2024-01-15T03:05:32;1.50;1.00
314;DHT22;143;51.634;7.112;2024-01-15T03:07:57;1.60;1.00
314;DHT22;143;51.634;7.112;2024-01-15T03:10:23;1.50;1.00
314;DHT22;143;51.634;7.112;2024-01-15T03:12:48;1.60;1.00
314;DHT22;143;51.634;7.112;2024-01-15T03:15:14;1.60;1.00
314;DHT22;143;51.634;7.112;2024-01-15T03:17:41;1.70;1.00
314;DHT22;143;51.634;7.112;2024-01-15T03:20:08;1.70;1.00
314;DHT22;143;51.634;7.112;2024-01-15T03:22:34;1.70;1.00
314;DHT22;143;51.634;7.112;2024-01-15T03:24:59;1.70;1.00
314;DHT22;143;51.634;7.112;2024-01-15T03:27:25;1.70;1.00
314;DHT22;143;51.634;7.112;2024-01-15T03:29:51;1.60;1.00
314;DHT22;143;51.634;7.112;2024-01-15T03:32:17;1.80;1.00
314;DHT22;143;51.634;7.112;2024-01-15T03:34:42;1.70;1.00
314;DHT22;143;51.634;7.112;2024-01-15T03:37:08;1.70;1.00
314;DHT22;143;51.634;7.112;2024-01-15T03:39:34;1.60;1.00
314;DHT22;143;51.634;7.112;2024-01-15T03:41:59;1.90;1.00
314;DHT22;143;51.634;7.112;2024-01-15T03:44:25;1.70;1.00
314;DHT22;143;51.634;7.112;2024-01-15T03:46:50;1.70;1.00
314;DHT22;143;51.634;7.112;2024-01-15T03:49:16;1.70;1.00
314;DHT22;143;51.634;7.112;2024-01-15T03:51:41;1.70;1.00
314;DHT22;143;51.634;7.112;2024-01-15T03:54:07;1.70;1.00
314;DHT22;143;51.634;7.112;2024-01-15T03:56:32;1.80;1.00
314;DHT22;143;51.634;7.112;2024-01-15T03:58:58;1.80;1.00
314;DHT22;143;51.634;7.112;2024-01-15T04:01:23;1.70;1.00
314;DHT22;143;51.634;7.112;2024-01-15T04:03:49;1.80;1.00
314;DHT22;143;51.634;7.112;2024-01-15T04:06:14;1.70;1.00
314;DHT22;143;51.634;7.112;2024-01-15T04:08:40;1.70;1.00
314;DHT22;143;51.634;7.112;2024-01-15T04:11:05;1.70;1.00
314;DHT22;143;51.634;7.112;2024-01-15T04:13:34;1.70;1.00
314;DHT22;143;51.634;7.112;2024-01-15T04:16:00;1.70;1.00
314;DHT22;143;51.634;7.112;2024-01-15T04:18:26;1.70;1.00
314;DHT22;143;51.634;7.112;2024-01-15T04:20:51;1.60;1.00
314;DHT22;143;51.634;7.112;2024-01-15T04:23:17;1.70;1.00
314;DHT22;143;51.634;7.112;2024-01-15T04:25:42;1.70;1.00
314;DHT22;143;51.634;7.112;2024-01-15T04:28:09;1.80;1.00
314;DHT22;143;51.634;7.112;2024-01-15T04:30:35;1.80;1.00
314;DHT22;143;51.634;7.112;2024-01-15T04:33:00;1.90;1.00
314;DHT22;143;51.634;7.112;2024-01-15T04:35:26;1.70;1.00
314;DHT22;143;51.634;7.112;2024-01-15T04:37:52;1.70;1.00
314;DHT22;143;51.634;7.112;2024-01-15T04:40:17;1.80;1.00
314;DHT22;143;51.634;7.112;2024-01-15T04:42:43;1.80;1.00
314;DHT22;143;51.634;7.112;2024-01-15T04:45:11;1.70;1.00
314;DHT22;143;51.634;7.112;2024-01-15T04:47:36;1.70;1.00
314;DHT22;143;51.634;7.112;2024-01-15T04:50:03;1.80;1.00
314;DHT22;143;51.634;7.112;2024-01-15T04:52:29;2.00;1.00
314;DHT22;143;51.634;7.112;2024-01-15T04:54:54;1.70;1.00
314;DHT22;143;51.634;7.112;2024-01-15T04:57:20;1.70;1.00
314;DHT22;143;51.634;7.112;2024-01-15T04:59:45;1.80;1.00
314;DHT22;143;51.634;7.112;2024-01-15T05:02:11;1.80;1.00
314;DHT22;143;51.634;7.112;2024-01-15T05:04:36;1.80;1.00
314;DHT22;143;51.634;7.112;2024-01-15T05:07:02;1.80;1.00
314;DHT22;143;51.634;7.112;2024-01-15T05:09:27;1.80;1.00
314;DHT22;143;51.634;7.112;2024-01-15T05:11:54;1.80;1.00
314;DHT22;143;51.634;7.112;2024-01-15T05:14:19;1.90;1.00
314;DHT22;143;51.634;7.112;2024-01-15T05:16:49;1.70;1.00
314;DHT22;143;51.634;7.112;2024-01-15T05:19:14;1.70;1.00
314;DHT22;143;51.634;7.112;2024-01-15T05:21:40;1.70;1.00
314;DHT22;143;51.634;7.112;2024-01-15T05:24:06;1.80;1.00
314;DHT22;143;51.634;7.112;2024-01-15T05:26:31;1.70;1.00
314;DHT22;143;51.634;7.112;2024-01-15T05:28:57;1.80;1.00
314;DHT22;143;51.634;7.112;2024-01-15T05:31:23;1.70;1.00
314;DHT22;143;51.634;7.112;2024-01-15T05:33:48;1.70;1.00
314;DHT22;143;51.634;7.112;2024-01-15T05:36:14;1.70;1.00
314;DHT22;143;51.634;7.112;2024-01-15T05:38:39;1.70;1.00
314;DHT22;143;51.634;7.112;2024-01-15T05:41:05;1.70;1.00
314;DHT22;143;51.634;7.112;2024-01-15T05:43:31;1.80;1.00
314;DHT22;143;51.634;7.112;2024-01-15T05:45:57;1.80;1.00
314;DHT22;143;51.634;7.112;2024-01-15T05:48:22;1.80;1.00
314;DHT22;143;51.634;7.112;2024-01-15T05:50:48;1.70;1.00
314;DHT22;143;51.634;7.112;2024-01-15T05:53:13;1.70;1.00
314;DHT22;143;51.634;7.112;2024-01-15T05:55:40;1.70;1.00
314;DHT22;143;51.634;7.112;2024-01-15T05:58:05;1.80;1.00
314;DHT22;143;51.634;7.112;2024-01-15T06:00:31;1.80;1.00
314;DHT22;143;51.634;7.112;2024-01-15T06:02:58;1.90;1.00
314;DHT22;143;51.634;7.112;2024-01-15T06:05:24;1.60;1.00
314;DHT22;143;51.634;7.112;2024-01-15T06:07:49;1.90;1.00
314;DHT22;143;51.634;7.112;2024-01-15T06:10:15;1.70;1.00
314;DHT22;143;51.634;7.112;2024-01-15T06:12:42;1.70;1.00
314;DHT22;143;51.634;7.112;2024-01-15T06:15:08;1.70;1.00
314;DHT22;143;51.634;7.112;2024-01-15T06:17:34;1.70;1.00
314;DHT22;143;51.634;7.112;2024-01-15T06:19:59;1.70;1.00
314;DHT22;143;51.634;7.112;2024-01-15T06:22:25;1.70;1.00
314;DHT22;143;51.634;7.112;2024-01-15T06:24:50;1.70;1.00
314;DHT22;143;51.634;7.112;2024-01-15T06:27:16;1.70;1.00
314;DHT22;143;51.634;7.112;2024-01-15T06:29:45;1.70;1.00
314;DHT22;143;51.634;7.112;2024-01-15T06:32:11;1.80;1.00
314;DHT22;143;51.634;7.112;2024-01-15T06:34:36;1.80;1.00
314;DHT22;143;51.634;7.112;2024-01-15T06:37:02;1.80;1.00
314;DHT22;143;51.634;7.112;2024-01-15T06:39:27;1.70;1.00
314;DHT22;143;51.634;7.112;2024-01-15T06:41:53;1.80;1.00
314;DHT22;143;51.634;7.112;2024-01-15T06:44:18;1.70;1.00
314;DHT22;143;51.634;7.112;2024-01-15T06:46:46;1.70;1.00
314;DHT22;143;51.634;7.112;2024-01-15T06:49:12;1.70;1.00
314;DHT22;143;51.634;7.112;2024-01-15T06:51:38;1.70;1.00
314;DHT22;143;51.634;7.112;2024-01-15T06:54:04;1.70;1.00
314;DHT22;143;51.634;7.112;2024-01-15T06:56:30;1.60;1.00
314;DHT22;143;51.634;7.112;2024-01-15T06:58:56;1.90;1.00
314;DHT22;143;51.634;7.112;2024-01-15T07:01:22;2.10;1.00
314;DHT22;143;51.634;7.112;2024-01-15T07:03:47;1.60;1.00
314;DHT22;143;51.634;7.112;2024-01-15T07:06:13;2.10;1.00
314;DHT22;143;51.634;7.112;2024-01-15T07:08:40;2.10;1.00
314;DHT22;143;51.634;7.112;2024-01-15T07:11:06;2.00;1.00
314;DHT22;143;51.634;7.112;2024-01-15T07:13:32;1.90;1.00
314;DHT22;143;51.634;7.112;2024-01-15T07:15:57;2.10;1.00
314;DHT22;143;51.634;7.112;2024-01-15T07:18:23;2.00;1.00
314;DHT22;143;51.634;7.112;2024-01-15T07:20:49;2.20;1.00
314;DHT22;143;51.634;7.112;2024-01-15T07:23:14;2.20;1.00
314;DHT22;143;51.634;7.112;2024-01-15T07:25:40;2.00;1.00
314;DHT22;143;51.634;7.112;2024-01-15T07:28:05;1.90;1.00
314;DHT22;143;51.634;7.112;2024-01-15T07:30:31;2.10;1.00
314;DHT22;143;51.634;7.112;2024-01-15T07:32:57;2.00;1.00
314;DHT22;143;51.634;7.112;2024-01-15T07:35:22;1.90;1.00
314;DHT22;143;51.634;7.112;2024-01-15T07:37:48;2.10;1.00
314;DHT22;143;51.634;7.112;2024-01-15T07:40:13;1.90;1.00
314;DHT22;143;51.634;7.112;2024-01-15T07:42:39;2.10;1.00
314;DHT22;143;51.634;7.112;2024-01-15T07:45:05;1.90;1.00
314;DHT22;143;51.634;7.112;2024-01-15T07:47:31;1.80;1.00
314;DHT22;143;51.634;7.112;2024-01-15T07:49:57;1.90;1.00
314;DHT22;143;51.634;7.112;2024-01-15T07:52:22;2.10;1.00
314;DHT22;143;51.634;7.112;2024-01-15T07:54:48;1.90;1.00
314;DHT22;143;51.634;7.112;2024-01-15T07:57:14;2.00;1.00
314;DHT22;143;51.634;7.112;2024-01-15T07:59:39;1.90;1.00
314;DHT22;143;51.634;7.112;2024-01-15T08:02:05;1.90;1.00
314;DHT22;143;51.634;7.112;2024-01-15T08:04:31;2.00;1.00
314;DHT22;143;51.634;7.112;2024-01-15T08:06:56;1.90;1.00
314;DHT22;143;51.634;7.112;2024-01-15T08:09:22;2.10;1.00
314;DHT22;143;51.634;7.112;2024-01-15T08:11:48;1.90;1.00
314;DHT22;143;51.634;7.112;2024-01-15T08:14:14;1.90;1.00
314;DHT22;143;51.634;7.112;2024-01-15T08:16:40;2.10;1.00
314;DHT22;143;51.634;7.112;2024-01-15T08:19:06;2.00;1.00
314;DHT22;143;51.634;7.112;2024-01-15T08:21:32;2.30;1.00
314;DHT22;143;51.634;7.112;2024-01-15T08:23:58;2.10;1.00
314;DHT22;143;51.634;7.112;2024-01-15T08:26:24;1.90;1.00
314;DHT22;143;51.634;7.112;2024-01-15T08:28:50;2.10;1.00
314;DHT22;143;51.634;7.112;2024-01-15T08:31:16;2.00;1.00
314;DHT22;143;51.634;7.112;2024-01-15T08:33:41;1.90;1.00
314;DHT22;143;51.634;7.112;2024-01-15T08:36:07;1.90;1.00
314;DHT22;143;51.634;7.112;2024-01-15T08:38:32;1.60;1.00
314;DHT22;143;51.634;7.112;2024-01-15T08:40:58;1.90;1.00
314;DHT22;143;51.634;7.112;2024-01-15T08:43:28;1.80;1.00
314;DHT22;143;51.634;7.112;2024-01-15T08:45:56;1.90;1.00
314;DHT22;143;51.634;7.112;2024-01-15T08:48:22;1.90;1.00
314;DHT22;143;51.634;7.112;2024-01-15T08:50:48;1.90;1.00
314;DHT22;143;51.634;7.112;2024-01-15T08:53:14;1.80;1.00
314;DHT22;143;51.634;7.112;2024-01-15T08:55:40;1.90;1.00
314;DHT22;143;51.634;7.112;2024-01-15T08:58:07;1.90;1.00
314;DHT22;143;51.634;7.112;2024-01-15T09:00:33;1.80;1.00
314;DHT22;143;51.634;7.112;2024-01-15T09:02:59;2.00;1.00
314;DHT22;143;51.634;7.112;2024-01-15T09:05:24;1.90;1.00
314;DHT22;143;51.634;7.112;2024-01-15T09:07:50;2.10;1.00
314;DHT22;143;51.634;7.112;2024-01-15T09:10:17;2.10;1.00
314;DHT22;143;51.634;7.112;2024-01-15T09:12:43;1.70;1.00
314;DHT22;143;51.634;7.112;2024-01-15T09:15:09;1.90;1.00
314;DHT22;143;51.634;7.112;2024-01-15T09:17:34;2.10;1.00
314;DHT22;143;51.634;7.112;2024-01-15T09:20:00;2.00;1.00
314;DHT22;143;51.634;7.112;2024-01-15T09:22:26;1.90;1.00
314;DHT22;143;51.634;7.112;2024-01-15T09:24:52;1.80;1.00
314;DHT22;143;51.634;7.112;2024-01-15T09:27:18;2.00;1.00
314;DHT22;143;51.634;7.112;2024-01-15T09:29:43;1.90;1.00
314;DHT22;143;51.634;7.112;2024-01-15T09:32:11;1.80;1.00
314;DHT22;143;51.634;7.112;2024-01-15T09:34:37;1.90;1.00
314;DHT22;143;51.634;7.112;2024-01-15T09:37:03;1.80;1.00
314;DHT22;143;51.634;7.112;2024-01-15T09:39:29;1.80;1.00
314;DHT22;143;51.634;7.112;2024-01-15T09:41:56;1.90;1.00
314;DHT22;143;51.634;7.112;2024-01-15T09:44:23;2.20;1.00
314;DHT22;143;51.634;7.112;2024-01-15T09:46:48;1.80;1.00
314;DHT22;143;51.634;7.112;2024-01-15T09:49:17;2.00;1.00
314;DHT22;143;51.634;7.112;2024-01-15T09:51:43;1.90;1.00
314;DHT22;143;51.634;7.112;2024-01-15T09:54:09;1.70;1.00
314;DHT22;143;51.634;7.112;2024-01-15T09:56:34;1.90;1.00
314;DHT22;143;51.634;7.112;2024-01-15T09:59:01;2.10;1.00
314;DHT22;143;51.634;7.112;2024-01-15T10:01:26;1.80;1.00
314;DHT22;143;51.634;7.112;2024-01-15T10:03:54;2.00;1.00
314;DHT22;143;51.634;7.112;2024-01-15T10:06:21;1.80;1.00
314;DHT22;143;51.634;7.112;2024-01-15T10:08:48;1.90;1.00
314;DHT22;143;51.634;7.112;2024-01-15T10:11:14;1.80;1.00
314;DHT22;143;51.634;7.112;2024-01-15T10:13:40;1.80;1.00
314;DHT22;143;51.634;7.112;2024-01-15T10:16:06;1.90;1.00
314;DHT22;143;51.634;7.112;2024-01-15T10:18:32;2.10;1.00
314;DHT22;143;51.634;7.112;2024-01-15T10:20:58;1.80;1.00
314;DHT22;143;51.634;7.112;2024-01-15T10:23:26;1.90;1.00
314;DHT22;143;51.634;7.112;2024-01-15T10:25:52;2.10;1.00
314;DHT22;143;51.634;7.112;2024-01-15T10:28:19;1.90;1.00
314;DHT22;143;51.634;7.112;2024-01-15T10:30:44;2.10;1.00
314;DHT22;143;51.634;7.112;2024-01-15T10:33:10;2.00;1.00
314;DHT22;143;51.634;7.112;2024-01-15T10:35:37;2.20;1.00
314;DHT22;143;51.634;7.112;2024-01-15T10:38:03;1.90;1.00
314;DHT22;143;51.634;7.112;2024-01-15T10:40:31;2.10;1.00
314;DHT22;143;51.634;7.112;2024-01-15T10:42:57;2.20;1.00
314;DHT22;143;51.634;7.112;2024-01-15T10:45:23;1.90;1.00
314;DHT22;143;51.634;7.112;2024-01-15T10:47:49;2.20;1.00
314;DHT22;143;51.634;7.112;2024-01-15T10:50:15;2.00;1.00
314;DHT22;143;51.634;7.112;2024-01-15T10:52:41;2.30;1.00
314;DHT22;143;51.634;7.112;2024-01-15T10:55:09;2.30;1.00
314;DHT22;143;51.634;7.112;2024-01-15T10:57:35;2.20;1.00
314;DHT22;143;51.634;7.112;2024-01-15T11:00:02;2.40;1.00
314;DHT22;143;51.634;7.112;2024-01-15T11:02:34;2.10;1.00
314;DHT22;143;51.634;7.112;2024-01-15T11:05:00;2.40;1.00
314;DHT22;143;51.634;7.112;2024-01-15T11:07:26;2.70;1.00
314;DHT22;143;51.634;7.112;2024-01-15T11:09:52;3.10;1.00
314;DHT22;143;51.634;7.112;2024-01-15T11:12:18;3.00;1.00
314;DHT22;143;51.634;7.112;2024-01-15T11:14:51;3.00;1.00
314;DHT22;143;51.634;7.112;2024-01-15T11:17:17;3.10;1.00
314;DHT22;143;51.634;7.112;2024-01-15T11:19:45;3.00;1.00
314;DHT22;143;51.634;7.112;2024-01-15T11:24:55;3.00;1.00
314;DHT22;143;51.634;7.112;2024-01-15T11:27:40;3.10;1.00
314;DHT22;143;51.634;7.112;2024-01-15T11:30:08;2.90;1.00
314;DHT22;143;51.634;7.112;2024-01-15T11:32:35;3.10;1.00
314;DHT22;143;51.634;7.112;2024-01-15T11:35:02;3.00;1.00
314;DHT22;143;51.634;7.112;2024-01-15T11:37:29;2.80;1.00
314;DHT22;143;51.634;7.112;2024-01-15T11:40:21;2.90;1.00
314;DHT22;143;51.634;7.112;2024-01-15T11:42:47;2.70;1.00
314;DHT22;143;51.634;7.112;2024-01-15T11:45:18;2.70;1.00
314;DHT22;143;51.634;7.112;2024-01-15T11:50:15;2.80;1.00
314;DHT22;143;51.634;7.112;2024-01-15T11:52:44;2.50;1.00
314;DHT22;143;51.634;7.112;2024-01-15T11:55:29;2.60;1.00
314;DHT22;143;51.634;7.112;2024-01-15T11:57:55;2.40;1.00
314;DHT22;143;51.634;7.112;2024-01-15T12:00:23;2.60;1.00
314;DHT22;143;51.634;7.112;2024-01-15T12:02:50;2.80;1.00
314;DHT22;143;51.634;7.112;2024-01-15T12:05:19;2.90;1.00
314;DHT22;143;51.634;7.112;2024-01-15T12:07:47;3.00;1.00
314;DHT22;143;51.634;7.112;2024-01-15T12:10:15;2.90;1.00
314;DHT22;143;51.634;7.112;2024-01-15T12:12:58;2.60;1.00
314;DHT22;143;51.634;7.112;2024-01-15T12:15:25;2.70;1.00
314;DHT22;143;51.634;7.112;2024-01-15T12:17:51;2.80;1.00
314;DHT22;143;51.634;7.112;2024-01-15T12:20:18;2.90;1.00
314;DHT22;143;51.634;7.112;2024-01-15T12:22:44;2.70;1.00
314;DHT22;143;51.634;7.112;2024-01-15T12:25:10;2.90;1.00
314;DHT22;143;51.634;7.112;2024-01-15T12:27:35;2.70;1.00
314;DHT22;143;51.634;7.112;2024-01-15T12:30:01;2.70;1.00
314;DHT22;143;51.634;7.112;2024-01-15T12:32:27;2.70;1.00
314;DHT22;143;51.634;7.112;2024-01-15T12:34:52;2.90;1.00
314;DHT22;143;51.634;7.112;2024-01-15T12:37:18;2.80;1.00
314;DHT22;143;51.634;7.112;2024-01-15T12:39:45;2.90;1.00
314;DHT22;143;51.634;7.112;2024-01-15T12:42:10;2.60;1.00
314;DHT22;143;51.634;7.112;2024-01-15T12:44:36;2.70;1.00
314;DHT22;143;51.634;7.112;2024-01-15T12:47:05;2.70;1.00
314;DHT22;143;51.634;7.112;2024-01-15T12:49:38;2.60;1.00
314;DHT22;143;51.634;7.112;2024-01-15T12:52:08;2.70;1.00
314;DHT22;143;51.634;7.112;2024-01-15T12:54:34;2.70;1.00
314;DHT22;143;51.634;7.112;2024-01-15T12:56:59;2.70;1.00
314;DHT22;143;51.634;7.112;2024-01-15T12:59:25;2.60;1.00
314;DHT22;143;51.634;7.112;2024-01-15T13:01:51;2.80;1.00
314;DHT22;143;51.634;7.112;2024-01-15T13:04:23;2.90;1.00
314;DHT22;143;51.634;7.112;2024-01-15T13:06:49;2.70;1.00
314;DHT22;143;51.634;7.112;2024-01-15T13:09:15;2.70;1.00
314;DHT22;143;51.634;7.112;2024-01-15T13:11:41;2.90;1.00
314;DHT22;143;51.634;7.112;2024-01-15T13:14:06;2.70;1.00
314;DHT22;143;51.634;7.112;2024-01-15T13:16:32;2.80;1.00
314;DHT22;143;51.634;7.112;2024-01-15T13:18:57;2.40;1.00
314;DHT22;143;51.634;7.112;2024-01-15T13:21:24;2.60;1.00
314;DHT22;143;51.634;7.112;2024-01-15T13:23:50;2.50;1.00
314;DHT22;143;51.634;7.112;2024-01-15T13:26:15;2.40;1.00
314;DHT22;143;51.634;7.112;2024-01-15T13:28:43;2.50;1.00
314;DHT22;143;51.634;7.112;2024-01-15T13:31:09;2.70;1.00
314;DHT22;143;51.634;7.112;2024-01-15T13:33:34;2.70;1.00
314;DHT22;143;51.634;7.112;2024-01-15T13:36:00;2.70;1.00
314;DHT22;143;51.634;7.112;2024-01-15T13:38:25;2.90;1.00
314;DHT22;143;51.634;7.112;2024-01-15T13:40:53;2.70;1.00
314;DHT22;143;51.634;7.112;2024-01-15T13:43:20;2.70;1.00
314;DHT22;143;51.634;7.112;2024-01-15T13:45:46;2.90;1.00
314;DHT22;143;51.634;7.112;2024-01-15T13:48:11;2.90;1.00
314;DHT22;143;51.634;7.112;2024-01-15T13:50:37;2.80;1.00
314;DHT22;143;51.634;7.112;2024-01-15T13:53:03;3.00;1.00
314;DHT22;143;51.634;7.112;2024-01-15T13:55:29;2.90;1.00
314;DHT22;143;51.634;7.112;2024-01-15T13:57:55;2.70;1.00
314;DHT22;143;51.634;7.112;2024-01-15T14:00:21;3.00;1.00
314;DHT22;143;51.634;7.112;2024-01-15T14:02:47;2.70;1.00
314;DHT22;143;51.634;7.112;2024-01-15T14:05:13;2.90;1.00
314;DHT22;143;51.634;7.112;2024-01-15T14:07:38;2.70;1.00
314;DHT22;143;51.634;7.112;2024-01-15T14:10:05;2.90;1.00
314;DHT22;143;51.634;7.112;2024-01-15T14:12:33;2.70;1.00
314;DHT22;143;51.634;7.112;2024-01-15T14:14:58;2.80;1.00
314;DHT22;143;51.634;7.112;2024-01-15T14:17:24;2.90;1.00
314;DHT22;143;51.634;7.112;2024-01-15T14:19:49;2.80;1.00
314;DHT22;143;51.634;7.112;2024-01-15T14:22:15;2.90;1.00
314;DHT22;143;51.634;7.112;2024-01-15T14:24:40;2.90;1.00
314;DHT22;143;51.634;7.112;2024-01-15T14:27:06;3.00;1.00
314;DHT22;143;51.634;7.112;2024-01-15T14:29:32;2.90;1.00
314;DHT22;143;51.634;7.112;2024-01-15T14:31:58;3.00;1.00
314;DHT22;143;51.634;7.112;2024-01-15T14:34:25;2.90;1.00
314;DHT22;143;51.634;7.112;2024-01-15T14:36:51;3.00;1.00
314;DHT22;143;51.634;7.112;2024-01-15T14:39:19;2.90;1.00
314;DHT22;143;51.634;7.112;2024-01-15T14:41:45;2.90;1.00
314;DHT22;143;51.634;7.112;2024-01-15T14:44:11;2.90;1.00
314;DHT22;143;51.634;7.112;2024-01-15T14:46:37;2.90;1.00
314;DHT22;143;51.634;7.112;2024-01-15T14:49:03;3.00;1.00
314;DHT22;143;51.634;7.112;2024-01-15T14:51:28;2.80;1.00
314;DHT22;143;51.634;7.112;2024-01-15T14:53:54;2.80;1.00
314;DHT22;143;51.634;7.112;2024-01-15T14:56:20;2.90;1.00
314;DHT22;143;51.634;7.112;2024-01-15T14:58:46;2.70;1.00
314;DHT22;143;51.634;7.112;2024-01-15T15:01:12;2.80;1.00
314;DHT22;143;51.634;7.112;2024-01-15T15:03:39;3.00;1.00
314;DHT22;143;51.634;7.112;2024-01-15T15:06:04;3.00;1.00
314;DHT22;143;51.634;7.112;2024-01-15T15:08:30;2.90;1.00
314;DHT22;143;51.634;7.112;2024-01-15T15:10:56;2.70;1.00
314;DHT22;143;51.634;7.112;2024-01-15T15:13:22;2.90;1.00
314;DHT22;143;51.634;7.112;2024-01-15T15:15:48;2.70;1.00
314;DHT22;143;51.634;7.112;2024-01-15T15:18:14;2.60;1.00
314;DHT22;143;51.634;7.112;2024-01-15T15:20:39;2.80;1.00
314;DHT22;143;51.634;7.112;2024-01-15T15:23:05;2.40;1.00
314;DHT22;143;51.634;7.112;2024-01-15T15:25:34;2.70;1.00
314;DHT22;143;51.634;7.112;2024-01-15T15:28:00;2.40;1.00
314;DHT22;143;51.634;7.112;2024-01-15T15:30:26;2.70;1.00
314;DHT22;143;51.634;7.112;2024-01-15T15:32:51;2.70;1.00
314;DHT22;143;51.634;7.112;2024-01-15T15:35:17;2.40;1.00
314;DHT22;143;51.634;7.112;2024-01-15T15:37:42;2.60;1.00
314;DHT22;143;51.634;7.112;2024-01-15T15:40:08;2.50;1.00
314;DHT22;143;51.634;7.112;2024-01-15T15:42:36;2.50;1.00
314;DHT22;143;51.634;7.112;2024-01-15T15:45:03;2.20;1.00
314;DHT22;143;51.634;7.112;2024-01-15T15:47:29;2.50;1.00
314;DHT22;143;51.634;7.112;2024-01-15T15:49:54;2.30;1.00
314;DHT22;143;51.634;7.112;2024-01-15T15:52:20;2.30;1.00
314;DHT22;143;51.634;7.112;2024-01-15T15:54:45;2.30;1.00
314;DHT22;143;51.634;7.112;2024-01-15T15:57:11;2.20;1.00
314;DHT22;143;51.634;7.112;2024-01-15T15:59:36;2.40;1.00
314;DHT22;143;51.634;7.112;2024-01-15T16:02:02;2.50;1.00
314;DHT22;143;51.634;7.112;2024-01-15T16:04:28;2.30;1.00
314;DHT22;143;51.634;7.112;2024-01-15T16:06:53;2.40;1.00
314;DHT22;143;51.634;7.112;2024-01-15T16:09:19;2.10;1.00
314;DHT22;143;51.634;7.112;2024-01-15T16:11:45;2.00;1.00
314;DHT22;143;51.634;7.112;2024-01-15T16:14:10;2.30;1.00
314;DHT22;143;51.634;7.112;2024-01-15T16:16:36;2.30;1.00
314;DHT22;143;51.634;7.112;2024-01-15T16:19:02;2.10;1.00
314;DHT22;143;51.634;7.112;2024-01-15T16:21:28;1.90;1.00
314;DHT22;143;51.634;7.112;2024-01-15T16:23:55;2.10;1.00
314;DHT22;143;51.634;7.112;2024-01-15T16:26:20;2.00;1.00
314;DHT22;143;51.634;7.112;2024-01-15T16:28:46;2.10;1.00
314;DHT22;143;51.634;7.112;2024-01-15T16:31:11;1.80;1.00
314;DHT22;143;51.634;7.112;2024-01-15T16:33:37;1.90;1.00
314;DHT22;143;51.634;7.112;2024-01-15T16:36:03;2.10;1.00
314;DHT22;143;51.634;7.112;2024-01-15T16:38:29;1.70;1.00
314;DHT22;143;51.634;7.112;2024-01-15T16:40:54;1.90;1.00
314;DHT22;143;51.634;7.112;2024-01-15T16:43:22;1.70;1.00
314;DHT22;143;51.634;7.112;2024-01-15T16:45:48;1.80;1.00
314;DHT22;143;51.634;7.112;2024-01-15T16:48:13;1.70;1.00
314;DHT22;143;51.634;7.112;2024-01-15T16:50:39;1.70;1.00
314;DHT22;143;51.634;7.112;2024-01-15T16:53:04;1.70;1.00
314;DHT22;143;51.634;7.112;2024-01-15T16:55:30;1.70;1.00
314;DHT22;143;51.634;7.112;2024-01-15T16:57:56;1.70;1.00
314;DHT22;143;51.634;7.112;2024-01-15T17:00:21;1.70;1.00
314;DHT22;143;51.634;7.112;2024-01-15T17:02:47;1.70;1.00
314;DHT22;143;51.634;7.112;2024-01-15T17:05:12;1.80;1.00